createdAt,value
2022-12-28T00:01:32.960Z,101667.59
2022-12-28T00:04:06.527Z,101653.19
2022-12-28T00:06:37.915Z,101639.94
2022-12-28T00:09:04.813Z,101629.94
2022-12-28T00:11:31.855Z,101632.13
2022-12-28T00:14:00.471Z,101615.31
2022-12-28T00:16:39.491Z,101596.66
2022-12-28T00:19:14.894Z,101614.13
2022-12-28T00:21:42.924Z,101595.13
2022-12-28T00:24:18.987Z,101588.31
2022-12-28T00:26:48.051Z,101597.97
2022-12-28T00:29:15.520Z,101588.22
2022-12-28T00:31:45.693Z,101570.84
2022-12-28T00:34:12.463Z,101568.47
2022-12-28T00:37:08.385Z,101566.59
2022-12-28T00:39:27.999Z,101572.56
2022-12-28T00:41:57.057Z,101553.38
2022-12-28T00:44:23.664Z,101563.56
2022-12-28T00:46:50.307Z,101558.06
2022-12-28T00:49:19.358Z,101557.94
2022-12-28T00:51:45.866Z,101542.53
2022-12-28T00:54:12.772Z,101502.59
2022-12-28T00:56:42.876Z,101535.72
2022-12-28T00:59:14.294Z,101525.41
2022-12-28T01:01:40.965Z,101530.19
2022-12-28T01:04:07.681Z,101520.84
2022-12-28T01:06:34.253Z,101525.63
2022-12-28T01:09:00.884Z,101523.69
2022-12-28T01:11:29.598Z,101511.66
2022-12-28T01:13:59.559Z,101508.94
2022-12-28T01:16:29.195Z,101499.81
2022-12-28T01:19:01.055Z,101490.69
2022-12-28T01:21:30.663Z,101496.56
2022-12-28T01:23:59.580Z,101486.34
2022-12-28T01:26:33.785Z,101474.97
2022-12-28T01:29:03.368Z,101473.00
2022-12-28T01:31:30.108Z,101480.47
2022-12-28T01:33:56.772Z,101464.44
2022-12-28T01:36:25.599Z,101472.88
2022-12-28T01:38:57.404Z,101471.78
2022-12-28T01:41:27.722Z,101454.41
2022-12-28T01:43:54.199Z,101460.63
2022-12-28T01:46:23.060Z,101456.78
2022-12-28T01:49:15.188Z,101452.09
2022-12-28T01:52:19.752Z,101448.31
2022-12-28T01:54:56.279Z,101425.56
2022-12-28T01:57:30.030Z,101438.09
2022-12-28T02:00:11.346Z,101434.63
2022-12-28T02:02:39.026Z,101421.47
2022-12-28T02:05:06.530Z,101419.63
2022-12-28T02:07:43.647Z,101426.56
2022-12-28T02:10:44.030Z,101412.88
2022-12-28T02:13:00.412Z,101393.03
2022-12-28T02:15:27.175Z,101385.63
2022-12-28T02:17:53.796Z,101398.13
2022-12-28T02:20:20.625Z,101388.22
2022-12-28T02:23:07.237Z,101386.25
2022-12-28T02:26:03.410Z,101374.78
2022-12-28T02:28:51.754Z,101363.69
2022-12-28T02:31:24.755Z,101368.13
2022-12-28T02:34:03.408Z,101354.81
2022-12-28T02:36:39.463Z,101354.91
2022-12-28T02:39:11.165Z,101359.22
2022-12-28T02:41:41.428Z,101361.84
2022-12-28T02:44:08.258Z,101348.16
2022-12-28T02:46:53.890Z,101359.63
2022-12-28T02:49:40.208Z,101355.94
2022-12-28T02:52:31.207Z,101339.66
2022-12-28T02:55:44.143Z,101338.91
2022-12-28T02:58:25.009Z,101334.22
2022-12-28T03:01:30.122Z,101331.50
2022-12-28T03:04:18.075Z,101318.28
2022-12-28T03:07:29.795Z,101324.34
2022-12-28T03:10:18.933Z,101333.38
2022-12-28T03:13:01.701Z,101317.94
2022-12-28T03:15:34.622Z,101299.53
2022-12-28T03:18:35.346Z,101306.09
2022-12-28T03:21:28.458Z,101296.34
2022-12-28T03:24:14.823Z,101309.44
2022-12-28T03:27:05.913Z,101308.31
2022-12-28T03:29:57.987Z,101306.38
2022-12-28T03:32:24.873Z,101306.25
2022-12-28T03:34:51.829Z,101310.56
2022-12-28T03:37:27.061Z,101292.69
2022-12-28T03:39:58.817Z,101293.81
2022-12-28T03:42:48.994Z,101293.06
2022-12-28T03:45:46.688Z,101283.69
2022-12-28T03:48:17.424Z,101279.25
2022-12-28T03:50:47.056Z,101277.28
2022-12-28T03:53:14.468Z,101288.53
2022-12-28T03:55:41.086Z,101264.19
2022-12-28T03:58:09.746Z,101272.97
2022-12-28T04:00:36.249Z,101270.00
2022-12-28T04:03:05.825Z,101269.78
2022-12-28T04:05:32.423Z,101256.19
2022-12-28T04:07:59.021Z,101256.81
2022-12-28T04:10:25.558Z,101268.31
2022-12-28T04:12:57.056Z,101256.44
2022-12-28T04:15:23.944Z,101270.63
2022-12-28T04:17:50.497Z,101266.09
2022-12-28T04:20:17.054Z,101247.19
2022-12-28T04:22:44.218Z,101246.72
2022-12-28T04:25:10.746Z,101246.06
2022-12-28T04:27:37.595Z,101236.56
2022-12-28T04:30:05.146Z,101257.94
2022-12-28T04:32:33.989Z,101264.84
2022-12-28T04:35:02.856Z,101258.06
2022-12-28T04:37:31.640Z,101260.44
2022-12-28T04:39:58.204Z,101252.63
2022-12-28T04:42:25.835Z,101264.25
2022-12-28T04:44:52.523Z,101249.16
2022-12-28T04:47:19.177Z,101254.75
2022-12-28T04:49:50.549Z,101258.19
2022-12-28T04:52:17.134Z,101257.06
2022-12-28T04:54:46.179Z,101241.63
2022-12-28T04:57:13.189Z,101241.41
2022-12-28T04:59:40.530Z,101236.81
2022-12-28T05:02:10.201Z,101212.72
2022-12-28T05:04:36.849Z,101224.81
2022-12-28T05:07:03.481Z,101226.28
2022-12-28T05:09:30.057Z,101211.97
2022-12-28T05:11:56.583Z,101207.50
2022-12-28T05:14:23.252Z,101211.97
2022-12-28T05:16:52.849Z,101220.34
2022-12-28T05:19:19.420Z,101217.75
2022-12-28T05:21:45.958Z,101222.22
2022-12-28T05:24:12.544Z,101225.53
2022-12-28T05:26:39.167Z,101234.22
2022-12-28T05:29:05.830Z,101233.22
2022-12-28T05:31:32.529Z,101232.22
2022-12-28T05:33:59.239Z,101210.22
2022-12-28T05:36:27.744Z,101212.81
2022-12-28T05:38:55.660Z,101215.31
2022-12-28T05:41:25.568Z,101212.94
2022-12-28T05:43:52.559Z,101222.19
2022-12-28T05:46:21.732Z,101212.47
2022-12-28T05:48:48.739Z,101200.19
2022-12-28T05:51:18.750Z,101216.16
2022-12-28T05:53:45.881Z,101218.63
2022-12-28T05:56:14.814Z,101205.88
2022-12-28T05:58:45.274Z,101193.91
2022-12-28T06:01:18.034Z,101199.59
2022-12-28T06:03:46.537Z,101188.47
2022-12-28T06:06:15.694Z,101190.47
2022-12-28T06:08:43.543Z,101180.44
2022-12-28T06:11:13.886Z,101182.19
2022-12-28T06:13:41.564Z,101173.00
2022-12-28T06:16:35.699Z,101169.69
2022-12-28T06:19:10.990Z,101180.19
2022-12-28T06:21:39.145Z,101173.75
2022-12-28T06:24:06.926Z,101182.78
2022-12-28T06:26:35.924Z,101169.03
2022-12-28T06:29:03.297Z,101165.47
2022-12-28T06:31:35.220Z,101179.66
2022-12-28T06:34:03.650Z,101167.06
2022-12-28T06:36:41.109Z,101174.97
2022-12-28T06:39:10.159Z,101169.38
2022-12-28T06:41:37.189Z,101139.38
2022-12-28T06:44:08.317Z,101171.84
2022-12-28T06:46:34.964Z,101173.47
2022-12-28T06:49:01.661Z,101164.41
2022-12-28T06:51:36.393Z,101167.91
2022-12-28T06:54:08.147Z,101161.69
2022-12-28T06:56:35.910Z,101167.75
2022-12-28T06:59:04.840Z,101172.19
2022-12-28T07:01:34.867Z,101163.06
2022-12-28T07:04:03.182Z,101165.78
2022-12-28T07:06:33.964Z,101159.19
2022-12-28T07:09:06.784Z,101149.31
2022-12-28T07:11:37.032Z,101149.44
2022-12-28T07:14:04.215Z,101141.75
2022-12-28T07:18:58.471Z,101142.34
2022-12-28T07:21:31.698Z,101153.81
2022-12-28T07:24:00.726Z,101139.75
2022-12-28T07:26:30.484Z,101147.53
2022-12-28T07:28:59.355Z,101157.16
2022-12-28T07:31:31.731Z,101151.72
2022-12-28T07:34:03.177Z,101162.47
2022-12-28T07:36:31.656Z,101138.72
2022-12-28T07:38:58.383Z,101145.88
2022-12-28T07:41:29.552Z,101139.84
2022-12-28T07:43:56.903Z,101149.59
2022-12-28T07:46:26.673Z,101149.59
2022-12-28T07:48:53.811Z,101139.97
2022-12-28T07:51:29.032Z,101138.59
2022-12-28T07:53:59.390Z,101157.97
2022-12-28T07:56:27.567Z,101156.34
2022-12-28T07:59:02.700Z,101148.81
2022-12-28T08:01:33.967Z,101148.06
2022-12-28T08:04:03.125Z,101154.97
2022-12-28T08:06:34.820Z,101152.00
2022-12-28T08:09:01.983Z,101154.47
2022-12-28T08:11:31.737Z,101141.38
2022-12-28T08:13:59.797Z,101147.16
2022-12-28T08:16:28.780Z,101155.03
2022-12-28T08:18:55.648Z,101141.13
2022-12-28T08:21:29.917Z,101153.19
2022-12-28T08:24:01.483Z,101148.88
2022-12-28T08:26:40.359Z,101144.28
2022-12-28T08:29:17.448Z,101139.69
2022-12-28T08:31:44.978Z,101151.19
2022-12-28T08:34:27.290Z,101145.72
2022-12-28T08:36:55.704Z,101149.34
2022-12-28T08:39:22.260Z,101148.31
2022-12-28T08:41:51.423Z,101142.88
2022-12-28T08:44:20.187Z,101129.81
2022-12-28T08:46:49.282Z,101130.41
2022-12-28T08:49:16.806Z,101147.06
2022-12-28T08:51:43.497Z,101146.94
2022-12-28T08:54:12.259Z,101138.78
2022-12-28T08:56:40.932Z,101120.13
2022-12-28T08:59:07.861Z,101146.41
2022-12-28T09:01:43.808Z,101136.97
2022-12-28T09:04:20.939Z,101135.84
2022-12-28T09:06:48.163Z,101138.44
2022-12-28T09:09:17.411Z,101134.97
2022-12-28T09:11:45.262Z,101140.75
2022-12-28T09:14:24.808Z,101144.19
2022-12-28T09:16:53.835Z,101138.75
2022-12-28T09:19:21.086Z,101141.59
2022-12-28T09:21:49.574Z,101139.47
2022-12-28T09:24:18.682Z,101146.78
2022-12-28T09:26:45.238Z,101147.50
2022-12-28T09:29:13.815Z,101137.47
2022-12-28T09:31:41.633Z,101142.78
2022-12-28T09:36:59.831Z,101130.75
2022-12-28T09:39:26.578Z,101146.25
2022-12-28T09:42:03.348Z,101154.16
2022-12-28T09:44:36.024Z,101145.97
2022-12-28T09:47:40.444Z,101146.81
2022-12-28T09:50:13.091Z,101153.97
2022-12-28T09:52:52.652Z,101139.78
2022-12-28T09:55:22.926Z,101129.06
2022-12-28T09:57:53.298Z,101132.53
2022-12-28T10:00:25.881Z,101126.19
2022-12-28T10:03:01.147Z,101128.78
2022-12-28T10:05:29.492Z,101127.41
2022-12-28T10:08:04.953Z,101122.09
2022-12-28T10:10:32.092Z,101125.97
2022-12-28T10:13:37.428Z,101111.06
2022-12-28T10:16:05.446Z,101107.31
2022-12-28T10:18:37.567Z,101123.69
2022-12-28T10:21:06.471Z,101119.41
2022-12-28T10:23:41.228Z,101117.97
2022-12-28T10:26:21.787Z,101120.69
2022-12-28T10:28:51.712Z,101103.63
2022-12-28T10:31:34.742Z,101113.41
2022-12-28T10:34:01.446Z,101115.09
2022-12-28T10:36:34.246Z,101106.06
2022-12-28T10:39:02.059Z,101102.63
2022-12-28T10:41:40.826Z,101107.66
2022-12-28T10:44:40.168Z,101111.38
2022-12-28T10:47:22.829Z,101095.72
2022-12-28T10:52:39.440Z,101100.19
2022-12-28T10:55:27.861Z,101104.06
2022-12-28T10:58:30.368Z,101093.84
2022-12-28T11:00:57.393Z,101096.91
2022-12-28T11:03:26.874Z,101090.84
2022-12-28T11:06:13.525Z,101084.28
2022-12-28T11:08:41.387Z,101079.09
2022-12-28T11:11:18.110Z,101080.69
2022-12-28T11:13:53.374Z,101068.63
2022-12-28T11:16:20.007Z,101072.66
2022-12-28T11:18:47.064Z,101071.22
2022-12-28T11:21:20.086Z,101058.00
2022-12-28T11:23:52.956Z,101073.09
2022-12-28T11:26:20.970Z,101037.66
2022-12-28T11:28:54.649Z,101061.03
2022-12-28T11:31:30.629Z,101048.72
2022-12-28T11:34:03.476Z,101054.59
2022-12-28T11:36:34.579Z,101048.88
2022-12-28T11:39:26.671Z,101040.41
2022-12-28T11:42:19.515Z,101032.50
2022-12-28T11:44:40.995Z,101039.38
2022-12-28T11:47:16.672Z,101040.13
2022-12-28T11:49:45.010Z,101033.38
2022-12-28T11:52:17.796Z,101031.38
2022-12-28T11:54:51.642Z,101028.47
2022-12-28T11:57:40.920Z,101038.53
2022-12-28T12:00:22.865Z,101024.91
2022-12-28T12:02:58.339Z,101010.41
2022-12-28T12:05:37.345Z,101018.59
2022-12-28T12:08:12.541Z,101006.84
2022-12-28T12:10:41.818Z,100997.50
2022-12-28T12:13:23.813Z,101015.88
2022-12-28T12:15:55.243Z,101007.56
2022-12-28T12:18:30.092Z,100998.22
2022-12-28T12:21:13.389Z,100986.75
2022-12-28T12:23:45.312Z,100997.38
2022-12-28T12:26:59.292Z,100989.34
2022-12-28T12:29:38.307Z,100982.47
2022-12-28T12:32:18.206Z,100984.31
2022-12-28T12:34:53.703Z,100978.16
2022-12-28T12:37:35.816Z,100972.56
2022-12-28T12:40:02.309Z,100967.97
2022-12-28T12:42:56.384Z,100953.19
2022-12-28T12:45:47.800Z,100945.16
2022-12-28T12:48:52.056Z,100945.59
2022-12-28T12:51:18.542Z,100940.97
2022-12-28T12:53:48.965Z,100931.81
2022-12-28T12:56:37.260Z,100922.50
2022-12-28T12:59:04.108Z,100915.19
2022-12-28T13:01:46.068Z,100905.56
2022-12-28T13:04:22.039Z,100914.63
2022-12-28T13:06:52.797Z,100891.38
2022-12-28T13:09:28.218Z,100891.22
2022-12-28T13:11:55.407Z,100895.25
2022-12-28T13:14:24.845Z,100884.63
2022-12-28T13:16:59.713Z,100864.81
2022-12-28T13:19:28.969Z,100874.88
2022-12-28T13:21:59.479Z,100863.53
2022-12-28T13:24:30.446Z,100864.38
2022-12-28T13:27:00.209Z,100856.63
2022-12-28T13:29:53.978Z,100856.34
2022-12-28T13:32:49.645Z,100847.47
2022-12-28T13:35:21.786Z,100836.41
2022-12-28T13:38:16.285Z,100826.81
2022-12-28T13:40:53.720Z,100834.25
2022-12-28T13:44:01.710Z,100834.25
2022-12-28T13:46:32.101Z,100816.91
2022-12-28T13:48:59.564Z,100813.34
2022-12-28T13:51:29.016Z,100800.56
2022-12-28T13:53:59.741Z,100802.28
2022-12-28T13:56:28.321Z,100780.78
2022-12-28T13:59:04.740Z,100778.75
2022-12-28T14:01:37.685Z,100767.53
2022-12-28T14:04:50.425Z,100755.50
2022-12-28T14:06:54.819Z,100773.41
2022-12-28T14:09:24.330Z,100764.22
2022-12-28T14:11:51.538Z,100759.47
2022-12-28T14:14:18.697Z,100741.69
2022-12-28T14:16:45.799Z,100742.69
2022-12-28T14:19:13.001Z,100746.94
2022-12-28T14:21:46.112Z,100732.78
2022-12-28T14:24:15.414Z,100741.19
2022-12-28T14:26:51.074Z,100725.00
2022-12-28T14:29:34.746Z,100733.59
2022-12-28T14:32:06.746Z,100716.97
2022-12-28T14:34:39.080Z,100716.25
2022-12-28T14:37:09.870Z,100707.78
2022-12-28T14:39:45.492Z,100709.06
2022-12-28T14:42:26.072Z,100704.50
2022-12-28T14:44:56.204Z,100708.06
2022-12-28T14:47:53.938Z,100691.97
2022-12-28T14:50:31.676Z,100695.00
2022-12-28T14:53:08.369Z,100673.78
2022-12-28T14:55:43.123Z,100683.84
2022-12-28T14:58:21.634Z,100681.97
2022-12-28T15:01:14.328Z,100662.63
2022-12-28T15:03:54.547Z,100667.63
2022-12-28T15:06:22.501Z,100664.06
2022-12-28T15:08:58.830Z,100646.59
2022-12-28T15:11:28.262Z,100656.63
2022-12-28T15:13:54.954Z,100638.56
2022-12-28T15:16:25.319Z,100646.59
2022-12-28T15:18:52.976Z,100642.00
2022-12-28T15:21:22.516Z,100638.84
2022-12-28T15:23:55.288Z,100626.19
2022-12-28T15:26:28.160Z,100626.34
2022-12-28T15:28:54.742Z,100614.34
2022-12-28T15:31:24.092Z,100622.06
2022-12-28T15:33:50.644Z,100616.94
2022-12-28T15:36:20.396Z,100616.44
2022-12-28T15:38:50.284Z,100603.47
2022-12-28T15:41:37.985Z,100594.94
2022-12-28T15:44:04.954Z,100600.25
2022-12-28T15:46:34.309Z,100600.09
2022-12-28T15:49:08.015Z,100599.25
2022-12-28T15:51:34.611Z,100576.06
2022-12-28T15:54:01.247Z,100578.44
2022-12-28T15:56:33.115Z,100581.31
2022-12-28T15:59:01.506Z,100577.75
2022-12-28T16:01:32.494Z,100576.06
2022-12-28T16:04:01.457Z,100577.91
2022-12-28T16:06:30.088Z,100575.31
2022-12-28T16:08:58.064Z,100551.47
2022-12-28T16:11:25.931Z,100579.22
2022-12-28T16:13:54.731Z,100567.44
2022-12-28T16:16:28.180Z,100560.22
2022-12-28T16:18:57.517Z,100539.19
2022-12-28T16:21:26.362Z,100533.56
2022-12-28T16:23:53.150Z,100551.56
2022-12-28T16:26:20.174Z,100536.38
2022-12-28T16:28:47.267Z,100527.97
2022-12-28T16:31:31.299Z,100530.41
2022-12-28T16:34:02.023Z,100526.63
2022-12-28T16:36:30.975Z,100516.19
2022-12-28T16:39:03.020Z,100516.19
2022-12-28T16:41:36.276Z,100507.03
2022-12-28T16:44:15.593Z,100488.16
2022-12-28T16:46:42.636Z,100486.41
2022-12-28T16:49:11.321Z,100484.13
2022-12-28T16:51:39.813Z,100478.69
2022-12-28T16:54:12.304Z,100467.22
2022-12-28T16:56:39.146Z,100474.94
2022-12-28T16:59:07.990Z,100475.09
2022-12-28T17:01:34.715Z,100467.78
2022-12-28T17:04:04.013Z,100464.34
2022-12-28T17:06:34.432Z,100450.63
2022-12-28T17:09:02.614Z,100456.66
2022-12-28T17:11:29.255Z,100449.50
2022-12-28T17:14:08.004Z,100436.16
2022-12-28T17:16:35.064Z,100429.47
2022-12-28T17:19:02.534Z,100445.56
2022-12-28T17:21:29.953Z,100434.69
2022-12-28T17:23:56.787Z,100432.28
2022-12-28T17:26:24.005Z,100429.22
2022-12-28T17:28:53.095Z,100421.25
2022-12-28T17:31:22.097Z,100409.78
2022-12-28T17:33:54.434Z,100390.47
2022-12-28T17:36:22.275Z,100392.34
2022-12-28T17:38:49.271Z,100403.34
2022-12-28T17:41:19.581Z,100394.31
2022-12-28T17:44:07.837Z,100386.13
2022-12-28T17:46:40.831Z,100389.88
2022-12-28T17:49:12.588Z,100388.88
2022-12-28T17:51:44.516Z,100372.53
2022-12-28T17:54:12.456Z,100382.53
2022-12-28T17:56:41.052Z,100360.97
2022-12-28T17:59:11.456Z,100377.09
2022-12-28T18:01:38.416Z,100365.66
2022-12-28T18:04:05.212Z,100361.06
2022-12-28T18:06:31.818Z,100361.94
2022-12-28T18:08:58.365Z,100354.06
2022-12-28T18:11:25.267Z,100355.47
2022-12-28T18:13:52.035Z,100350.88
2022-12-28T18:16:22.364Z,100340.59
2022-12-28T18:18:49.167Z,100357.41
2022-12-28T18:21:21.383Z,100341.38
2022-12-28T18:23:50.291Z,100344.56
2022-12-28T18:26:22.565Z,100346.97
2022-12-28T18:28:49.746Z,100337.13
2022-12-28T18:31:16.387Z,100335.38
2022-12-28T18:33:45.747Z,100337.41
2022-12-28T18:36:17.335Z,100330.25
2022-12-28T18:38:45.060Z,100329.41
2022-12-28T18:41:14.682Z,100330.22
2022-12-28T18:43:41.791Z,100334.91
2022-12-28T18:46:09.032Z,100320.63
2022-12-28T18:48:38.553Z,100321.63
2022-12-28T18:51:11.078Z,100317.16
2022-12-28T18:53:38.635Z,100317.47
2022-12-28T18:56:15.697Z,100311.88
2022-12-28T18:58:43.297Z,100306.59
2022-12-28T19:01:40.188Z,100308.63
2022-12-28T19:04:07.715Z,100316.09
2022-12-28T19:06:34.843Z,100309.47
2022-12-28T19:09:05.258Z,100314.38
2022-12-28T19:11:31.989Z,100304.91
2022-12-28T19:14:02.438Z,100303.69
2022-12-28T19:16:31.881Z,100301.84
2022-12-28T19:19:00.625Z,100303.16
2022-12-28T19:21:32.709Z,100295.00
2022-12-28T19:24:06.756Z,100295.22
2022-12-28T19:26:34.864Z,100291.13
2022-12-28T19:29:06.945Z,100300.50
2022-12-28T19:31:34.164Z,100302.06
2022-12-28T19:34:01.356Z,100276.31
2022-12-28T19:36:34.079Z,100296.63
2022-12-28T19:39:05.429Z,100284.53
2022-12-28T19:41:48.249Z,100290.16
2022-12-28T19:44:20.190Z,100265.41
2022-12-28T19:46:48.703Z,100286.78
2022-12-28T19:49:15.443Z,100293.97
2022-12-28T19:51:44.622Z,100291.09
2022-12-28T19:54:13.511Z,100283.59
2022-12-28T19:56:40.083Z,100273.38
2022-12-28T19:59:07.377Z,100276.09
2022-12-28T20:01:38.984Z,100271.38
2022-12-28T20:04:12.931Z,100262.31
2022-12-28T20:06:43.836Z,100263.72
2022-12-28T20:09:10.873Z,100266.63
2022-12-28T20:11:37.489Z,100266.31
2022-12-28T20:14:05.112Z,100270.56
2022-12-28T20:16:36.053Z,100278.56
2022-12-28T20:19:10.385Z,100286.59
2022-12-28T20:21:38.552Z,100259.34
2022-12-28T20:24:05.989Z,100261.91
2022-12-28T20:26:35.454Z,100267.19
2022-12-28T20:29:03.853Z,100267.34
2022-12-28T20:31:31.377Z,100265.50
2022-12-28T20:33:58.040Z,100259.38
2022-12-28T20:36:27.184Z,100264.66
2022-12-28T20:38:55.369Z,100243.34
2022-12-28T20:41:43.387Z,100257.22
2022-12-28T20:44:16.112Z,100247.00
2022-12-28T20:46:44.068Z,100240.53
2022-12-28T20:49:15.596Z,100209.13
2022-12-28T20:51:42.740Z,100245.28
2022-12-28T20:54:10.643Z,100240.69
2022-12-28T20:56:38.705Z,100247.88
2022-12-28T20:59:06.150Z,100236.59
2022-12-28T21:01:34.296Z,100257.31
2022-12-28T21:04:01.071Z,100240.97
2022-12-28T21:06:27.717Z,100244.38
2022-12-28T21:08:54.290Z,100238.06
2022-12-28T21:11:20.908Z,100226.28
2022-12-28T21:13:47.443Z,100217.09
2022-12-28T21:16:15.141Z,100225.31
2022-12-28T21:18:41.745Z,100212.00
2022-12-28T21:21:15.088Z,100211.84
2022-12-28T21:23:42.037Z,100200.59
2022-12-28T21:26:14.996Z,100211.69
2022-12-28T21:28:44.863Z,100214.09
2022-12-28T21:31:14.564Z,100203.53
2022-12-28T21:33:41.464Z,100200.28
2022-12-28T21:36:12.157Z,100187.66
2022-12-28T21:38:40.047Z,100174.75
2022-12-28T21:41:15.351Z,100198.81
2022-12-28T21:43:41.930Z,100181.22
2022-12-28T21:46:16.750Z,100175.94
2022-12-28T21:48:43.332Z,100177.66
2022-12-28T21:51:31.878Z,100168.56
2022-12-28T21:54:14.085Z,100172.38
2022-12-28T21:56:43.355Z,100184.13
2022-12-28T21:59:13.439Z,100184.81
2022-12-28T22:02:00.002Z,100182.78
2022-12-28T22:04:45.665Z,100180.91
2022-12-28T22:07:15.934Z,100168.44
2022-12-28T22:10:01.861Z,100188.25
2022-12-28T22:12:34.365Z,100162.66
2022-12-28T22:15:35.277Z,100168.13
2022-12-28T22:18:04.733Z,100165.94
2022-12-28T22:20:33.314Z,100161.31
2022-12-28T22:23:01.136Z,100160.66
2022-12-28T22:25:29.668Z,100161.66
2022-12-28T22:27:59.305Z,100163.22
2022-12-28T22:30:26.346Z,100164.75
2022-12-28T22:32:53.239Z,100159.97
2022-12-28T22:35:24.689Z,100171.56
2022-12-28T22:37:51.224Z,100162.34
2022-12-28T22:40:18.045Z,100141.22
2022-12-28T22:42:47.022Z,100150.09
2022-12-28T22:45:19.453Z,100147.19
2022-12-28T22:47:47.020Z,100150.59
2022-12-28T22:50:18.563Z,100145.81
2022-12-28T22:52:46.014Z,100155.56
2022-12-28T22:55:12.613Z,100145.13
2022-12-28T22:57:41.424Z,100135.59
2022-12-28T23:00:14.594Z,100138.50
2022-12-28T23:02:41.662Z,100132.88
2022-12-28T23:05:08.428Z,100135.94
2022-12-28T23:07:36.357Z,100141.56
2022-12-28T23:10:04.131Z,100125.53
2022-12-28T23:12:30.692Z,100134.94
2022-12-28T23:15:15.823Z,100129.31
2022-12-28T23:17:45.321Z,100124.84
2022-12-28T23:20:31.376Z,100129.97
2022-12-28T23:23:16.730Z,100118.19
2022-12-28T23:26:01.948Z,100115.28
2022-12-28T23:28:28.694Z,100105.41
2022-12-28T23:30:56.536Z,100110.88
2022-12-28T23:33:25.429Z,100113.09
2022-12-28T23:35:52.024Z,100097.72
2022-12-28T23:38:20.790Z,100090.38
2022-12-28T23:41:07.331Z,100092.44
2022-12-28T23:43:34.018Z,100102.66
2022-12-28T23:46:04.248Z,100088.16
2022-12-28T23:48:30.903Z,100083.22
2022-12-28T23:51:08.139Z,100089.34
2022-12-28T23:53:35.282Z,100077.75
2022-12-28T23:56:04.394Z,100073.81
2022-12-28T23:58:31.091Z,100071.94
